createdAt,value
2022-08-17T00:00:34.388Z,23.48
2022-08-17T00:03:03.568Z,23.39
2022-08-17T00:05:34.350Z,23.43
2022-08-17T00:08:01.861Z,23.43
2022-08-17T00:10:28.943Z,23.41
2022-08-17T00:12:59.530Z,23.40
2022-08-17T00:15:26.832Z,23.37
2022-08-17T00:17:53.959Z,23.40
2022-08-17T00:20:21.589Z,23.43
2022-08-17T00:23:11.405Z,23.41
2022-08-17T00:25:41.249Z,23.43
2022-08-17T00:28:08.379Z,23.44
2022-08-17T00:30:51.214Z,23.43
2022-08-17T00:33:25.093Z,23.39
2022-08-17T00:35:53.160Z,23.32
2022-08-17T00:38:20.311Z,23.26
2022-08-17T00:40:55.827Z,23.22
2022-08-17T00:43:37.429Z,23.21
2022-08-17T00:46:14.701Z,23.16
2022-08-17T00:48:43.040Z,23.12
2022-08-17T00:51:24.719Z,23.08
2022-08-17T00:54:00.074Z,23.06
2022-08-17T00:56:35.910Z,23.03
2022-08-17T00:59:06.659Z,22.98
2022-08-17T01:01:34.186Z,22.95
2022-08-17T01:04:02.727Z,22.93
2022-08-17T01:06:29.950Z,22.89
2022-08-17T01:08:59.649Z,22.86
2022-08-17T01:11:29.675Z,22.88
2022-08-17T01:13:56.750Z,22.86
2022-08-17T01:16:28.502Z,22.86
2022-08-17T01:19:01.339Z,22.88
2022-08-17T01:21:57.682Z,22.88
2022-08-17T01:24:28.189Z,22.88
2022-08-17T01:26:56.664Z,22.87
2022-08-17T01:29:26.030Z,22.86
2022-08-17T01:31:56.649Z,22.80
2022-08-17T01:34:25.149Z,22.78
2022-08-17T01:37:07.539Z,22.75
2022-08-17T01:39:43.712Z,22.69
2022-08-17T01:42:18.471Z,22.67
2022-08-17T01:44:45.509Z,22.69
2022-08-17T01:47:12.829Z,22.68
2022-08-17T01:49:39.810Z,22.69
2022-08-17T01:52:11.572Z,22.70
2022-08-17T01:54:41.718Z,22.72
2022-08-17T01:57:09.179Z,22.74
2022-08-17T01:59:36.680Z,22.76
2022-08-17T02:02:05.465Z,22.78
2022-08-17T02:04:32.669Z,22.75
2022-08-17T02:06:59.831Z,22.66
2022-08-17T02:09:29.760Z,22.66
2022-08-17T02:12:00.229Z,22.57
2022-08-17T02:14:47.259Z,22.51
2022-08-17T02:17:14.375Z,22.51
2022-08-17T02:19:42.048Z,22.50
2022-08-17T02:22:09.389Z,22.51
2022-08-17T02:25:00.213Z,22.51
2022-08-17T02:27:26.138Z,22.48
2022-08-17T02:29:53.128Z,22.47
2022-08-17T02:32:27.158Z,22.48
2022-08-17T02:34:56.975Z,22.45
2022-08-17T02:37:25.249Z,22.39
2022-08-17T02:39:52.309Z,22.37
2022-08-17T02:42:22.689Z,22.36
2022-08-17T02:44:49.729Z,22.36
2022-08-17T02:47:16.699Z,22.31
2022-08-17T02:49:54.338Z,22.28
2022-08-17T02:52:43.101Z,22.27
2022-08-17T02:55:15.463Z,22.25
2022-08-17T02:57:42.888Z,22.24
2022-08-17T03:00:15.398Z,22.26
2022-08-17T03:02:44.299Z,22.27
2022-08-17T03:05:13.039Z,22.31
2022-08-17T03:07:40.050Z,22.32
2022-08-17T03:10:08.429Z,22.33
2022-08-17T03:12:39.729Z,22.33
2022-08-17T03:15:15.757Z,22.33
2022-08-17T03:17:43.589Z,22.29
2022-08-17T03:20:11.910Z,22.25
2022-08-17T03:22:48.033Z,22.25
2022-08-17T03:25:37.430Z,22.27
2022-08-17T03:28:06.409Z,22.22
2022-08-17T03:30:34.361Z,22.23
2022-08-17T03:33:04.049Z,22.22
2022-08-17T03:35:35.129Z,22.19
2022-08-17T03:38:02.790Z,22.17
2022-08-17T03:40:34.367Z,22.19
2022-08-17T03:43:19.109Z,22.20
2022-08-17T03:46:04.621Z,22.20
2022-08-17T03:48:51.554Z,22.20
2022-08-17T03:51:43.053Z,22.16
2022-08-17T03:54:29.211Z,22.11
2022-08-17T03:57:08.170Z,22.12
2022-08-17T03:59:36.539Z,22.11
2022-08-17T04:02:13.409Z,22.05
2022-08-17T04:04:40.772Z,22.03
2022-08-17T04:07:08.573Z,22.02
2022-08-17T04:09:36.709Z,21.95
2022-08-17T04:12:04.736Z,21.92
2022-08-17T04:14:51.533Z,21.93
2022-08-17T04:17:20.183Z,21.92
2022-08-17T04:19:47.460Z,21.91
2022-08-17T04:22:31.965Z,21.96
2022-08-17T04:25:19.651Z,21.97
2022-08-17T04:27:48.530Z,21.93
2022-08-17T04:30:16.149Z,21.95
2022-08-17T04:33:05.146Z,21.99
2022-08-17T04:35:38.003Z,22.00
2022-08-17T04:38:06.544Z,21.99
2022-08-17T04:40:52.122Z,21.93
2022-08-17T04:43:22.218Z,22.05
2022-08-17T04:45:56.701Z,22.16
2022-08-17T04:48:36.593Z,22.28
2022-08-17T04:51:19.150Z,22.36
2022-08-17T04:53:54.819Z,22.48
2022-08-17T04:56:23.677Z,22.51
2022-08-17T04:58:52.657Z,22.63
2022-08-17T05:01:23.912Z,22.72
2022-08-17T05:03:53.278Z,22.78
2022-08-17T05:06:20.789Z,22.88
2022-08-17T05:08:47.799Z,22.98
2022-08-17T05:11:15.169Z,23.09
2022-08-17T05:13:42.181Z,23.19
2022-08-17T05:16:09.419Z,23.28
2022-08-17T05:18:39.007Z,23.39
2022-08-17T05:21:07.011Z,23.48
2022-08-17T05:23:42.639Z,23.51
2022-08-17T05:26:25.533Z,23.62
2022-08-17T05:28:59.691Z,23.80
2022-08-17T05:31:30.140Z,23.84
2022-08-17T05:33:57.765Z,23.89
2022-08-17T05:36:42.633Z,24.03
2022-08-17T05:39:16.232Z,24.20
2022-08-17T05:41:46.490Z,24.36
2022-08-17T05:44:13.530Z,24.51
2022-08-17T05:46:44.001Z,24.64
2022-08-17T05:49:12.900Z,24.75
2022-08-17T05:51:48.943Z,24.78
2022-08-17T05:54:39.601Z,24.89
2022-08-17T05:57:12.640Z,24.95
2022-08-17T05:59:57.969Z,25.01
2022-08-17T06:02:47.844Z,25.07
2022-08-17T06:05:23.858Z,25.17
2022-08-17T06:07:57.880Z,25.20
2022-08-17T06:10:35.281Z,25.29
2022-08-17T06:13:19.011Z,25.36
2022-08-17T06:16:04.545Z,25.48
2022-08-17T06:19:01.283Z,25.54
2022-08-17T06:21:34.363Z,25.65
2022-08-17T06:24:07.780Z,25.62
2022-08-17T06:26:43.224Z,25.69
2022-08-17T06:29:33.722Z,25.77
2022-08-17T06:32:02.676Z,25.85
2022-08-17T06:34:30.141Z,25.90
2022-08-17T06:37:06.461Z,25.96
2022-08-17T06:39:50.694Z,26.04
2022-08-17T06:42:54.959Z,26.09
2022-08-17T06:45:31.804Z,26.17
2022-08-17T06:47:58.792Z,26.26
2022-08-17T06:50:38.620Z,26.30
2022-08-17T06:53:30.663Z,26.36
2022-08-17T06:56:11.422Z,26.54
2022-08-17T06:58:41.840Z,26.44
2022-08-17T07:01:19.791Z,26.53
2022-08-17T07:04:19.422Z,26.70
2022-08-17T07:06:50.150Z,26.78
2022-08-17T07:09:43.180Z,26.76
2022-08-17T07:12:22.367Z,26.86
2022-08-17T07:14:56.522Z,26.94
2022-08-17T07:17:47.869Z,27.03
2022-08-17T07:20:22.821Z,27.18
2022-08-17T07:23:08.871Z,27.29
2022-08-17T07:25:35.980Z,27.37
2022-08-17T07:28:07.150Z,27.44
2022-08-17T07:30:50.456Z,27.49
2022-08-17T07:33:22.839Z,27.57
2022-08-17T07:35:50.560Z,27.66
2022-08-17T07:38:25.309Z,27.76
2022-08-17T07:41:02.973Z,27.86
2022-08-17T07:43:37.601Z,27.95
2022-08-17T07:46:44.621Z,28.03
2022-08-17T07:49:12.722Z,28.15
2022-08-17T07:51:54.700Z,28.22
2022-08-17T07:54:30.421Z,28.30
2022-08-17T07:57:03.692Z,28.41
2022-08-17T07:59:34.879Z,28.48
2022-08-17T08:02:31.090Z,28.60
2022-08-17T08:05:01.885Z,28.73
2022-08-17T08:07:34.914Z,28.84
2022-08-17T08:10:12.361Z,28.99
2022-08-17T08:12:47.019Z,28.92
2022-08-17T08:15:23.650Z,29.14
2022-08-17T08:17:55.620Z,29.26
2022-08-17T08:20:37.829Z,29.39
2022-08-17T08:23:45.102Z,29.60
2022-08-17T08:26:27.450Z,29.73
2022-08-17T08:29:04.601Z,29.87
2022-08-17T08:31:56.625Z,29.99
2022-08-17T08:35:01.716Z,29.78
2022-08-17T08:38:01.290Z,30.13
2022-08-17T08:40:36.663Z,30.30
2022-08-17T08:43:14.351Z,30.38
2022-08-17T08:46:00.000Z,30.46
2022-08-17T08:49:11.972Z,30.61
2022-08-17T08:51:58.506Z,30.73
2022-08-17T08:55:23.862Z,30.85
2022-08-17T08:57:59.116Z,30.98
2022-08-17T09:00:27.580Z,31.06
2022-08-17T09:02:57.368Z,31.17
2022-08-17T09:05:54.343Z,31.24
2022-08-17T09:08:46.251Z,31.38
2022-08-17T09:12:01.838Z,31.48
2022-08-17T09:15:01.420Z,31.61
2022-08-17T09:17:47.960Z,31.75
2022-08-17T09:20:29.822Z,31.83
2022-08-17T09:23:12.750Z,31.91
2022-08-17T09:25:51.622Z,32.05
2022-08-17T09:28:30.402Z,32.16
2022-08-17T09:31:03.200Z,32.21
2022-08-17T09:33:34.140Z,32.37
2022-08-17T09:36:10.349Z,32.50
2022-08-17T09:38:59.221Z,32.64
2022-08-17T09:41:49.004Z,32.83
2022-08-17T09:44:36.150Z,33.00
2022-08-17T09:47:08.478Z,33.22
2022-08-17T09:49:51.641Z,33.32
2022-08-17T09:52:27.841Z,33.38
2022-08-17T09:54:57.221Z,33.50
2022-08-17T09:57:31.353Z,33.59
2022-08-17T10:00:16.143Z,33.66
2022-08-17T10:03:03.300Z,33.77
2022-08-17T10:05:33.109Z,33.81
2022-08-17T10:08:17.120Z,33.88
2022-08-17T10:11:12.082Z,33.96
2022-08-17T10:13:47.178Z,34.08
2022-08-17T10:16:44.210Z,34.26
2022-08-17T10:19:19.870Z,34.40
2022-08-17T10:22:14.590Z,34.52
2022-08-17T10:25:23.660Z,34.62
2022-08-17T10:27:58.716Z,34.76
2022-08-17T10:30:31.760Z,34.72
2022-08-17T10:33:03.132Z,34.83
2022-08-17T10:35:38.889Z,35.02
2022-08-17T10:38:46.270Z,35.18
2022-08-17T10:41:27.351Z,35.20
2022-08-17T10:44:39.420Z,35.20
2022-08-17T10:46:56.480Z,35.29
2022-08-17T10:49:30.312Z,35.39
2022-08-17T10:52:00.297Z,35.20
2022-08-17T10:54:47.809Z,35.23
2022-08-17T10:57:29.740Z,35.29
2022-08-17T11:00:27.045Z,35.51
2022-08-17T11:13:37.929Z,35.03
2022-08-17T11:16:20.321Z,35.26
2022-08-17T11:19:13.271Z,35.35
2022-08-17T11:22:11.934Z,35.57
2022-08-17T11:24:51.503Z,35.77
2022-08-17T11:27:21.351Z,35.99
2022-08-17T11:30:01.531Z,36.17
2022-08-17T11:32:37.250Z,36.38
2022-08-17T11:35:22.610Z,36.60
2022-08-17T11:38:14.013Z,36.73
2022-08-17T11:40:52.439Z,36.93
2022-08-17T11:43:25.783Z,37.08
2022-08-17T11:45:55.469Z,37.37
2022-08-17T11:48:57.095Z,37.56
2022-08-17T11:51:45.268Z,37.74
2022-08-17T11:54:41.957Z,37.91
2022-08-17T11:57:27.334Z,38.12
2022-08-17T12:00:30.359Z,38.24
2022-08-17T12:03:23.848Z,38.29
2022-08-17T12:06:01.309Z,38.39
2022-08-17T12:08:32.788Z,38.51
2022-08-17T12:11:10.983Z,38.48
2022-08-17T12:13:46.868Z,38.66
2022-08-17T12:16:21.609Z,38.66
2022-08-17T12:19:02.553Z,38.58
2022-08-17T12:21:40.910Z,38.45
2022-08-17T12:24:14.906Z,38.79
2022-08-17T12:26:44.329Z,38.96
2022-08-17T12:29:38.612Z,38.84
2022-08-17T12:32:07.256Z,39.06
2022-08-17T12:34:41.052Z,39.46
2022-08-17T12:37:15.517Z,39.53
2022-08-17T12:39:53.068Z,39.65
2022-08-17T12:42:32.463Z,39.98
2022-08-17T12:44:59.571Z,39.82
2022-08-17T12:47:30.223Z,40.13
2022-08-17T12:50:29.192Z,40.25
2022-08-17T12:53:01.153Z,40.35
2022-08-17T12:55:35.318Z,40.43
2022-08-17T12:58:02.870Z,40.43
2022-08-17T13:00:31.616Z,40.32
2022-08-17T13:03:00.326Z,40.43
2022-08-17T13:05:35.811Z,40.51
2022-08-17T13:08:13.670Z,40.60
2022-08-17T13:10:41.354Z,40.71
2022-08-17T13:13:24.390Z,40.67
2022-08-17T13:16:05.392Z,40.91
2022-08-17T13:18:53.699Z,40.93
2022-08-17T13:21:22.589Z,41.03
2022-08-17T13:23:58.127Z,41.09
2022-08-17T13:26:38.929Z,40.65
2022-08-17T13:29:31.228Z,40.70
2022-08-17T13:32:04.766Z,41.04
2022-08-17T13:34:56.175Z,41.02
2022-08-17T13:37:34.933Z,40.99
2022-08-17T13:40:27.049Z,40.86
2022-08-17T13:42:56.026Z,40.97
2022-08-17T13:45:35.048Z,40.72
2022-08-17T13:48:13.701Z,40.65
2022-08-17T13:51:07.174Z,40.64
2022-08-17T13:53:43.855Z,41.15
2022-08-17T13:56:34.950Z,41.22
2022-08-17T13:59:13.360Z,41.19
2022-08-17T14:01:51.072Z,41.13
2022-08-17T14:04:24.470Z,40.92
2022-08-17T14:07:01.308Z,40.64
2022-08-17T14:10:08.939Z,40.28
2022-08-17T14:12:39.359Z,40.31
2022-08-17T14:15:07.750Z,40.22
2022-08-17T14:17:38.624Z,40.50
2022-08-17T14:20:09.878Z,40.25
2022-08-17T14:22:39.500Z,40.44
2022-08-17T14:25:08.676Z,40.38
2022-08-17T14:27:52.336Z,40.59
2022-08-17T14:30:26.939Z,40.58
2022-08-17T14:32:56.709Z,40.74
2022-08-17T14:35:24.602Z,40.70
2022-08-17T14:37:52.604Z,40.66
2022-08-17T14:40:21.116Z,40.40
2022-08-17T14:42:48.470Z,40.45
2022-08-17T14:45:32.197Z,40.10
2022-08-17T14:48:04.329Z,39.86
2022-08-17T14:50:35.735Z,39.44
2022-08-17T14:53:04.729Z,39.65
2022-08-17T14:55:32.830Z,39.72
2022-08-17T14:57:59.981Z,39.51
2022-08-17T15:00:27.137Z,39.51
2022-08-17T15:02:58.555Z,39.54
2022-08-17T15:05:31.636Z,39.43
2022-08-17T15:08:00.095Z,39.58
2022-08-17T15:10:28.290Z,39.71
2022-08-17T15:12:55.660Z,39.48
2022-08-17T15:15:22.840Z,39.14
2022-08-17T15:17:51.394Z,39.34
2022-08-17T15:20:21.620Z,39.24
2022-08-17T15:22:56.307Z,39.10
2022-08-17T15:25:25.244Z,39.04
2022-08-17T15:27:52.779Z,38.99
2022-08-17T15:30:20.232Z,38.97
2022-08-17T15:32:54.422Z,38.84
2022-08-17T15:35:29.596Z,38.71
2022-08-17T15:37:58.641Z,38.50
2022-08-17T15:40:25.654Z,38.39
2022-08-17T15:42:53.240Z,38.47
2022-08-17T15:45:23.091Z,38.35
2022-08-17T15:47:50.216Z,38.31
2022-08-17T15:50:17.529Z,38.18
2022-08-17T15:52:45.300Z,38.14
2022-08-17T15:55:15.304Z,37.90
2022-08-17T15:57:42.420Z,37.85
2022-08-17T16:00:10.388Z,37.74
2022-08-17T16:03:44.451Z,37.64
2022-08-17T16:05:31.070Z,37.45
2022-08-17T16:07:58.823Z,37.25
2022-08-17T16:10:35.386Z,37.05
2022-08-17T16:13:04.264Z,36.95
2022-08-17T16:15:32.047Z,36.84
2022-08-17T16:17:59.517Z,36.62
2022-08-17T16:20:26.968Z,36.46
2022-08-17T16:22:55.248Z,36.38
2022-08-17T16:25:38.343Z,36.17
2022-08-17T16:28:18.145Z,36.03
2022-08-17T16:30:45.697Z,35.92
2022-08-17T16:33:12.650Z,35.84
2022-08-17T16:35:39.768Z,35.66
2022-08-17T16:38:07.287Z,35.55
2022-08-17T16:40:35.744Z,35.45
2022-08-17T16:43:12.240Z,35.31
2022-08-17T16:45:40.975Z,35.14
2022-08-17T16:48:09.819Z,35.00
2022-08-17T16:50:37.043Z,34.84
2022-08-17T16:53:10.952Z,34.77
2022-08-17T16:55:38.879Z,34.61
2022-08-17T16:58:07.061Z,34.51
2022-08-17T17:00:34.252Z,34.37
2022-08-17T17:03:19.146Z,34.24
2022-08-17T17:06:18.676Z,34.07
2022-08-17T17:08:57.730Z,33.91
2022-08-17T17:11:35.687Z,33.76
2022-08-17T17:14:06.449Z,33.68
2022-08-17T17:16:45.300Z,33.59
2022-08-17T17:19:34.513Z,33.51
2022-08-17T17:22:15.960Z,33.42
2022-08-17T17:25:07.543Z,33.30
2022-08-17T17:28:00.051Z,33.22
2022-08-17T17:30:39.518Z,33.12
2022-08-17T17:33:15.050Z,32.98
2022-08-17T17:35:56.855Z,32.84
2022-08-17T17:38:40.640Z,32.69
2022-08-17T17:41:15.586Z,32.59
2022-08-17T17:43:43.287Z,32.47
2022-08-17T17:46:29.267Z,32.35
2022-08-17T17:48:57.952Z,32.24
2022-08-17T17:52:09.453Z,32.10
2022-08-17T17:54:25.729Z,31.96
2022-08-17T17:57:11.221Z,31.83
2022-08-17T17:59:59.282Z,31.71
2022-08-17T18:02:51.534Z,31.61
2022-08-17T18:05:28.460Z,31.49
2022-08-17T18:08:34.992Z,31.32
2022-08-17T18:11:13.450Z,31.17
2022-08-17T18:13:44.150Z,31.11
2022-08-17T18:16:15.161Z,31.00
2022-08-17T18:18:48.079Z,30.90
2022-08-17T18:21:21.040Z,30.82
2022-08-17T18:24:00.265Z,30.71
2022-08-17T18:26:33.433Z,30.64
2022-08-17T18:29:01.082Z,30.54
2022-08-17T18:31:28.496Z,30.45
2022-08-17T18:34:45.529Z,30.34
2022-08-17T18:37:10.117Z,30.27
2022-08-17T18:39:38.760Z,30.22
2022-08-17T18:42:25.851Z,30.10
2022-08-17T18:44:55.423Z,30.11
2022-08-17T18:47:29.624Z,30.01
2022-08-17T18:50:18.330Z,29.99
2022-08-17T18:52:47.562Z,29.88
2022-08-17T18:55:25.577Z,29.84
2022-08-17T18:57:56.997Z,29.78
2022-08-17T19:00:30.137Z,29.72
2022-08-17T19:03:01.253Z,29.64
2022-08-17T19:05:35.790Z,29.55
2022-08-17T19:08:20.680Z,29.50
2022-08-17T19:10:51.640Z,29.46
2022-08-17T19:13:25.141Z,29.38
2022-08-17T19:16:15.981Z,29.36
2022-08-17T19:18:56.917Z,29.31
2022-08-17T19:21:31.192Z,29.23
2022-08-17T19:24:14.380Z,29.14
2022-08-17T19:26:54.826Z,29.08
2022-08-17T19:29:26.032Z,29.06
2022-08-17T19:31:56.429Z,29.02
2022-08-17T19:34:34.024Z,28.95
2022-08-17T19:37:21.846Z,28.93
2022-08-17T19:40:50.595Z,28.83
2022-08-17T19:43:33.199Z,28.76
2022-08-17T19:46:15.035Z,28.72
2022-08-17T19:49:04.161Z,28.67
2022-08-17T19:51:41.281Z,28.65
2022-08-17T19:54:40.700Z,28.60
2022-08-17T19:57:18.119Z,28.57
2022-08-17T19:59:54.833Z,28.57
2022-08-17T20:02:37.866Z,28.51
2022-08-17T20:05:26.040Z,28.46
2022-08-17T20:07:55.359Z,28.38
2022-08-17T20:10:54.607Z,28.37
2022-08-17T20:13:34.247Z,28.33
2022-08-17T20:16:03.329Z,28.30
2022-08-17T20:18:38.440Z,28.21
2022-08-17T20:21:20.498Z,28.19
2022-08-17T20:23:56.839Z,27.95
2022-08-17T20:26:28.829Z,27.93
2022-08-17T20:29:16.810Z,27.79
2022-08-17T20:31:49.723Z,27.74
2022-08-17T20:34:38.187Z,27.77
2022-08-17T20:37:14.711Z,27.79
2022-08-17T20:39:52.790Z,27.76
2022-08-17T20:42:22.543Z,27.70
2022-08-17T20:45:05.929Z,27.70
2022-08-17T20:47:55.335Z,27.67
2022-08-17T20:50:36.779Z,27.67
2022-08-17T20:53:07.239Z,27.60
2022-08-17T20:55:34.160Z,27.64
2022-08-17T20:58:30.861Z,27.41
2022-08-17T21:00:59.163Z,27.36
2022-08-17T21:03:49.935Z,27.23
2022-08-17T21:06:18.741Z,27.20
2022-08-17T21:08:57.822Z,27.18
2022-08-17T21:11:57.134Z,27.05
2022-08-17T21:14:56.640Z,27.01
2022-08-17T21:17:29.813Z,26.99
2022-08-17T21:20:15.780Z,26.95
2022-08-17T21:23:07.411Z,26.95
2022-08-17T21:25:43.237Z,26.89
2022-08-17T21:28:34.157Z,26.82
2022-08-17T21:31:09.125Z,26.78
2022-08-17T21:33:39.783Z,26.66
2022-08-17T21:36:12.635Z,26.64
2022-08-17T21:38:48.842Z,26.58
2022-08-17T21:41:31.345Z,26.51
2022-08-17T21:44:07.281Z,26.49
2022-08-17T21:46:40.300Z,26.48
2022-08-17T21:49:13.619Z,26.43
2022-08-17T21:51:51.191Z,26.38
2022-08-17T21:54:35.880Z,26.34
2022-08-17T21:57:07.302Z,26.31
2022-08-17T21:59:38.881Z,26.27
2022-08-17T22:02:22.562Z,26.14
2022-08-17T22:04:59.381Z,26.17
2022-08-17T22:07:48.221Z,26.11
2022-08-17T22:10:38.342Z,26.02
2022-08-17T22:13:16.831Z,25.97
2022-08-17T22:16:28.143Z,25.97
2022-08-17T22:18:53.579Z,25.97
2022-08-17T22:21:22.643Z,26.02
2022-08-17T22:24:16.541Z,26.04
2022-08-17T22:27:13.189Z,26.02
2022-08-17T22:29:56.844Z,26.05
2022-08-17T22:32:35.254Z,25.99
2022-08-17T22:35:17.350Z,25.95
2022-08-17T22:37:44.516Z,25.98
2022-08-17T22:40:34.682Z,25.94
2022-08-17T22:43:03.812Z,25.85
2022-08-17T22:45:31.373Z,25.81
2022-08-17T22:48:00.912Z,25.76
2022-08-17T22:50:31.201Z,25.69
2022-08-17T22:53:22.841Z,25.68
2022-08-17T22:56:14.511Z,25.66
2022-08-17T22:59:14.017Z,25.64
2022-08-17T23:01:43.571Z,25.58
2022-08-17T23:04:35.967Z,25.55
2022-08-17T23:07:03.021Z,25.56
2022-08-17T23:09:30.181Z,25.52
2022-08-17T23:11:59.103Z,25.51
2022-08-17T23:14:31.810Z,25.47
2022-08-17T23:17:02.503Z,25.46
2022-08-17T23:19:31.859Z,25.49
2022-08-17T23:21:59.993Z,25.53
2022-08-17T23:24:30.151Z,25.28
2022-08-17T23:26:58.375Z,25.12
2022-08-17T23:29:26.119Z,25.18
2022-08-17T23:31:53.452Z,25.13
2022-08-17T23:34:20.671Z,25.18
2022-08-17T23:36:52.604Z,25.25
2022-08-17T23:39:24.518Z,25.26
2022-08-17T23:42:00.611Z,25.33
2022-08-17T23:44:29.141Z,25.31
2022-08-17T23:46:56.323Z,25.35
2022-08-17T23:49:25.391Z,25.38
2022-08-17T23:51:54.931Z,25.35
2022-08-17T23:54:28.614Z,25.37
2022-08-17T23:56:55.831Z,25.34
2022-08-17T23:59:23.862Z,25.29
